createdAt,value
2022-08-09T00:00:21.481Z,22.20
2022-08-09T00:02:51.607Z,22.20
2022-08-09T00:06:18.878Z,22.20
2022-08-09T00:08:11.025Z,22.20
2022-08-09T00:10:41.584Z,22.10
2022-08-09T00:13:17.560Z,22.00
2022-08-09T00:15:57.672Z,21.90
2022-08-09T00:18:27.960Z,21.80
2022-08-09T00:20:56.760Z,21.80
2022-08-09T00:23:57.744Z,21.80
2022-08-09T00:26:14.775Z,21.80
2022-08-09T00:28:52.187Z,21.80
2022-08-09T00:31:58.172Z,21.60
2022-08-09T00:34:09.250Z,21.60
2022-08-09T00:36:40.099Z,21.50
2022-08-09T00:39:10.801Z,21.50
2022-08-09T00:44:11.191Z,21.50
2022-08-09T00:44:34.974Z,21.60
2022-08-09T00:47:05.930Z,21.60
2022-08-09T00:49:34.702Z,21.40
2022-08-09T00:52:06.179Z,21.40
2022-08-09T00:54:45.703Z,21.30
2022-08-09T00:57:24.748Z,21.30
2022-08-09T01:00:05.444Z,21.30
2022-08-09T01:02:52.154Z,21.20
2022-08-09T01:05:53.325Z,21.20
2022-08-09T01:08:30.880Z,21.30
2022-08-09T01:11:15.406Z,21.30
2022-08-09T01:13:59.531Z,21.20
2022-08-09T01:16:32.849Z,21.10
2022-08-09T01:19:08.133Z,21.10
2022-08-09T01:21:51.381Z,20.90
2022-08-09T01:24:36.019Z,21.00
2022-08-09T01:27:09.904Z,21.00
2022-08-09T01:29:54.953Z,21.00
2022-08-09T01:32:31.809Z,21.00
2022-08-09T01:35:17.957Z,21.00
2022-08-09T01:38:09.746Z,20.90
2022-08-09T01:40:44.650Z,20.80
2022-08-09T01:43:24.240Z,20.70
2022-08-09T01:45:54.663Z,20.70
2022-08-09T01:48:29.802Z,20.60
2022-08-09T01:51:00.489Z,20.60
2022-08-09T01:53:40.940Z,20.60
2022-08-09T01:56:10.869Z,20.60
2022-08-09T01:58:43.735Z,20.60
2022-08-09T02:01:18.419Z,20.50
2022-08-09T02:03:48.056Z,20.50
2022-08-09T02:06:17.418Z,20.40
2022-08-09T02:08:59.021Z,20.50
2022-08-09T02:11:40.220Z,20.40
2022-08-09T02:14:25.616Z,20.40
2022-08-09T02:17:14.353Z,20.40
2022-08-09T02:19:44.706Z,20.30
2022-08-09T02:22:31.711Z,20.30
2022-08-09T02:25:08.705Z,20.40
2022-08-09T02:27:58.053Z,20.30
2022-08-09T02:30:33.045Z,20.20
2022-08-09T02:33:03.025Z,20.30
2022-08-09T02:36:01.342Z,20.30
2022-08-09T02:38:29.948Z,20.30
2022-08-09T02:41:04.254Z,20.30
2022-08-09T02:43:47.743Z,20.20
2022-08-09T02:46:25.266Z,20.20
2022-08-09T02:48:57.381Z,20.10
2022-08-09T02:51:33.092Z,20.10
2022-08-09T02:54:12.459Z,20.10
2022-08-09T02:56:51.124Z,20.00
2022-08-09T02:59:26.672Z,20.00
2022-08-09T03:02:12.181Z,20.00
2022-08-09T03:04:47.032Z,20.00
2022-08-09T03:07:21.100Z,19.90
2022-08-09T03:09:53.971Z,19.90
2022-08-09T03:12:24.530Z,20.00
2022-08-09T03:14:53.519Z,19.90
2022-08-09T03:17:27.218Z,19.90
2022-08-09T03:20:03.534Z,19.80
2022-08-09T03:22:41.707Z,19.90
2022-08-09T03:25:26.827Z,19.80
2022-08-09T03:28:02.407Z,19.70
2022-08-09T03:30:34.207Z,19.70
2022-08-09T03:33:17.835Z,19.80
2022-08-09T03:36:12.923Z,19.80
2022-08-09T03:38:41.990Z,19.70
2022-08-09T03:41:15.367Z,19.70
2022-08-09T03:44:04.019Z,19.60
2022-08-09T03:46:32.907Z,19.60
2022-08-09T03:49:08.436Z,19.60
2022-08-09T03:51:56.771Z,19.50
2022-08-09T03:54:30.117Z,19.50
2022-08-09T03:57:04.058Z,19.50
2022-08-09T03:59:52.969Z,19.50
2022-08-09T04:02:26.647Z,19.30
2022-08-09T04:05:06.098Z,19.30
2022-08-09T04:07:52.750Z,19.20
2022-08-09T04:10:29.745Z,19.20
2022-08-09T04:13:01.323Z,19.20
2022-08-09T04:15:52.317Z,19.10
2022-08-09T04:18:21.233Z,19.10
2022-08-09T04:20:51.616Z,19.10
2022-08-09T04:23:24.768Z,19.10
2022-08-09T04:25:53.859Z,19.10
2022-08-09T04:28:30.604Z,19.20
2022-08-09T04:31:09.524Z,19.20
2022-08-09T04:33:53.208Z,19.20
2022-08-09T04:36:28.341Z,19.20
2022-08-09T04:38:57.932Z,19.30
2022-08-09T04:41:33.126Z,19.40
2022-08-09T04:44:06.491Z,19.40
2022-08-09T04:46:56.663Z,19.50
2022-08-09T04:49:40.400Z,19.60
2022-08-09T04:52:18.546Z,19.60
2022-08-09T04:54:54.732Z,19.60
2022-08-09T04:57:23.972Z,19.60
2022-08-09T04:59:53.953Z,19.60
2022-08-09T05:02:22.070Z,19.60
2022-08-09T05:04:55.046Z,19.60
2022-08-09T05:07:29.216Z,19.70
2022-08-09T05:10:02.260Z,19.70
2022-08-09T05:12:31.318Z,19.90
2022-08-09T05:15:03.589Z,19.90
2022-08-09T05:18:37.520Z,20.00
2022-08-09T05:20:29.950Z,20.00
2022-08-09T05:23:55.291Z,20.10
2022-08-09T05:25:51.062Z,20.40
2022-08-09T05:28:19.958Z,20.50
2022-08-09T05:30:48.137Z,20.70
2022-08-09T05:33:16.174Z,20.70
2022-08-09T05:35:46.665Z,20.90
2022-08-09T05:38:21.645Z,21.10
2022-08-09T05:40:50.732Z,21.10
2022-08-09T05:43:18.992Z,21.20
2022-08-09T05:45:55.832Z,21.40
2022-08-09T05:48:27.872Z,21.40
2022-08-09T05:51:41.672Z,21.70
2022-08-09T05:53:56.546Z,21.90
2022-08-09T05:56:26.541Z,22.20
2022-08-09T05:58:58.475Z,22.20
2022-08-09T06:01:33.631Z,22.30
2022-08-09T06:04:02.467Z,22.50
2022-08-09T06:06:34.083Z,22.50
2022-08-09T06:09:03.513Z,22.70
2022-08-09T06:11:41.068Z,22.70
2022-08-09T06:14:24.772Z,22.80
2022-08-09T06:16:52.692Z,23.00
2022-08-09T06:19:20.889Z,23.10
2022-08-09T06:21:51.495Z,22.90
2022-08-09T06:24:28.188Z,23.10
2022-08-09T06:26:56.648Z,23.30
2022-08-09T06:29:24.836Z,23.60
2022-08-09T06:32:52.772Z,23.70
2022-08-09T06:34:42.918Z,23.50
2022-08-09T06:37:10.655Z,23.70
2022-08-09T06:39:57.819Z,23.70
2022-08-09T06:42:30.706Z,24.20
2022-08-09T06:45:52.058Z,24.30
2022-08-09T06:47:49.969Z,24.70
2022-08-09T06:50:30.983Z,24.90
2022-08-09T06:53:00.782Z,25.20
2022-08-09T06:55:32.941Z,25.20
2022-08-09T06:58:03.159Z,25.50
2022-08-09T07:00:55.798Z,25.70
2022-08-09T07:03:28.073Z,25.80
2022-08-09T07:06:02.720Z,25.90
2022-08-09T07:08:32.111Z,26.10
2022-08-09T07:11:03.391Z,26.20
2022-08-09T07:13:44.927Z,26.20
2022-08-09T07:16:40.447Z,26.40
2022-08-09T07:19:10.678Z,26.30
2022-08-09T07:21:55.544Z,26.60
2022-08-09T07:24:32.520Z,26.80
2022-08-09T07:27:27.153Z,26.80
2022-08-09T07:30:03.591Z,27.00
2022-08-09T07:32:34.717Z,27.30
2022-08-09T07:35:08.231Z,27.40
2022-08-09T07:37:44.068Z,27.40
2022-08-09T07:40:17.711Z,27.40
2022-08-09T07:42:58.771Z,27.70
2022-08-09T07:45:37.488Z,27.80
2022-08-09T07:48:08.258Z,27.90
2022-08-09T07:51:09.441Z,28.30
2022-08-09T07:54:04.991Z,28.20
2022-08-09T07:56:33.821Z,28.40
2022-08-09T07:59:12.448Z,28.40
2022-08-09T08:01:53.050Z,28.50
2022-08-09T08:04:31.333Z,28.50
2022-08-09T08:07:00.387Z,28.70
2022-08-09T08:09:51.620Z,28.90
2022-08-09T08:12:28.341Z,28.60
2022-08-09T08:14:59.624Z,28.80
2022-08-09T08:17:52.200Z,28.60
2022-08-09T08:20:15.749Z,28.80
2022-08-09T08:22:44.450Z,28.70
2022-08-09T08:25:16.582Z,29.00
2022-08-09T08:27:49.847Z,29.00
2022-08-09T08:30:21.843Z,28.90
2022-08-09T08:32:53.859Z,29.10
2022-08-09T08:35:22.906Z,29.20
2022-08-09T08:37:59.981Z,29.20
2022-08-09T08:40:32.921Z,29.40
2022-08-09T08:43:02.192Z,29.50
2022-08-09T08:45:37.183Z,29.30
2022-08-09T08:48:06.877Z,29.40
2022-08-09T08:50:38.860Z,29.40
2022-08-09T08:53:11.860Z,29.50
2022-08-09T08:55:44.557Z,29.40
2022-08-09T08:58:12.663Z,29.50
2022-08-09T09:00:42.851Z,29.70
2022-08-09T09:03:22.789Z,29.40
2022-08-09T09:05:59.906Z,29.50
2022-08-09T09:08:37.697Z,29.50
2022-08-09T09:11:07.209Z,29.50
2022-08-09T09:13:55.383Z,29.50
2022-08-09T09:16:29.914Z,29.70
2022-08-09T09:19:37.714Z,29.70
2022-08-09T09:21:58.820Z,29.60
2022-08-09T09:24:29.949Z,29.80
2022-08-09T09:26:59.425Z,29.90
2022-08-09T09:29:45.983Z,30.00
2022-08-09T09:32:34.668Z,30.20
2022-08-09T09:35:09.314Z,30.30
2022-08-09T09:37:40.554Z,30.20
2022-08-09T09:40:11.892Z,30.50
2022-08-09T09:42:43.062Z,30.50
2022-08-09T09:45:25.568Z,30.30
2022-08-09T09:47:58.890Z,30.40
2022-08-09T09:50:49.331Z,30.50
2022-08-09T09:53:20.994Z,30.90
2022-08-09T09:55:57.595Z,30.60
2022-08-09T09:58:47.161Z,30.70
2022-08-09T10:01:31.229Z,30.60
2022-08-09T10:04:16.345Z,30.40
2022-08-09T10:06:52.443Z,30.40
2022-08-09T10:09:24.138Z,30.30
2022-08-09T10:12:11.593Z,30.30
2022-08-09T10:14:47.902Z,30.20
2022-08-09T10:17:24.280Z,30.20
2022-08-09T10:20:27.272Z,30.20
2022-08-09T10:23:17.134Z,29.80
2022-08-09T10:26:06.880Z,30.20
2022-08-09T10:28:39.068Z,30.50
2022-08-09T10:34:08.257Z,29.80
2022-08-09T10:36:42.094Z,29.60
2022-08-09T10:39:15.487Z,29.30
2022-08-09T10:41:44.235Z,30.00
2022-08-09T10:44:12.309Z,30.40
2022-08-09T10:47:03.972Z,30.00
2022-08-09T10:49:54.334Z,30.40
2022-08-09T10:52:42.855Z,30.70
2022-08-09T10:55:23.971Z,30.60
2022-08-09T10:57:55.870Z,30.30
2022-08-09T11:01:10.799Z,30.70
2022-08-09T11:03:49.731Z,30.90
2022-08-09T11:06:19.574Z,31.00
2022-08-09T11:08:51.260Z,31.00
2022-08-09T11:11:22.959Z,31.30
2022-08-09T11:14:28.377Z,31.30
2022-08-09T11:16:57.192Z,31.20
2022-08-09T11:20:11.650Z,31.00
2022-08-09T11:23:09.962Z,30.90
2022-08-09T11:25:48.488Z,30.70
2022-08-09T11:28:56.320Z,31.00
2022-08-09T11:31:50.091Z,30.90
2022-08-09T11:34:32.644Z,31.20
2022-08-09T11:37:01.810Z,31.30
2022-08-09T11:39:37.935Z,31.40
2022-08-09T11:42:14.880Z,31.20
2022-08-09T11:44:48.124Z,31.30
2022-08-09T11:47:16.896Z,31.40
2022-08-09T11:50:54.842Z,31.60
2022-08-09T11:53:57.499Z,31.70
2022-08-09T11:56:42.567Z,31.10
2022-08-09T11:59:30.344Z,31.40
2022-08-09T12:02:34.199Z,31.40
2022-08-09T12:04:58.049Z,31.70
2022-08-09T12:07:41.581Z,31.60
2022-08-09T12:10:14.370Z,31.60
2022-08-09T12:13:00.394Z,31.70
2022-08-09T12:15:48.801Z,31.50
2022-08-09T12:18:29.830Z,31.50
2022-08-09T12:21:00.669Z,31.60
2022-08-09T12:23:56.271Z,31.50
2022-08-09T12:26:19.783Z,31.70
2022-08-09T12:29:11.253Z,31.90
2022-08-09T12:31:59.245Z,32.00
2022-08-09T12:34:34.921Z,31.70
2022-08-09T12:37:21.918Z,31.90
2022-08-09T12:40:05.482Z,32.20
2022-08-09T12:42:34.887Z,32.10
2022-08-09T12:45:32.050Z,32.10
2022-08-09T12:47:54.512Z,31.90
2022-08-09T12:50:23.423Z,32.00
2022-08-09T12:53:08.243Z,32.10
2022-08-09T12:56:14.120Z,32.00
2022-08-09T12:58:28.233Z,32.30
2022-08-09T13:00:57.801Z,32.40
2022-08-09T13:03:52.804Z,32.50
2022-08-09T13:06:33.975Z,32.60
2022-08-09T13:09:07.831Z,32.60
2022-08-09T13:11:39.168Z,32.80
2022-08-09T13:14:42.138Z,32.80
2022-08-09T13:17:01.085Z,32.10
2022-08-09T13:20:07.725Z,32.00
2022-08-09T13:22:35.666Z,32.10
2022-08-09T13:25:12.050Z,32.20
2022-08-09T13:27:48.748Z,32.10
2022-08-09T13:30:49.164Z,32.10
2022-08-09T13:33:52.492Z,32.00
2022-08-09T13:36:37.348Z,32.00
2022-08-09T13:39:34.317Z,32.00
2022-08-09T13:42:00.924Z,32.00
2022-08-09T13:44:30.229Z,31.90
2022-08-09T13:47:26.991Z,31.90
2022-08-09T13:49:58.131Z,31.80
2022-08-09T13:52:31.861Z,31.90
2022-08-09T13:55:05.127Z,31.50
2022-08-09T13:57:40.499Z,31.70
2022-08-09T14:00:13.323Z,31.90
2022-08-09T14:03:03.365Z,31.90
2022-08-09T14:06:00.668Z,32.00
2022-08-09T14:08:24.180Z,32.10
2022-08-09T14:10:54.996Z,32.20
2022-08-09T14:14:16.011Z,32.50
2022-08-09T14:16:14.691Z,32.60
2022-08-09T14:18:46.012Z,32.60
2022-08-09T14:21:18.611Z,32.60
2022-08-09T14:23:55.263Z,32.80
2022-08-09T14:26:30.043Z,32.70
2022-08-09T14:29:01.084Z,32.80
2022-08-09T14:31:36.416Z,32.30
2022-08-09T14:34:17.343Z,32.40
2022-08-09T14:36:45.794Z,32.60
2022-08-09T14:39:18.132Z,32.00
2022-08-09T14:41:46.040Z,32.40
2022-08-09T14:44:15.589Z,32.70
2022-08-09T14:47:02.245Z,32.80
2022-08-09T14:49:34.475Z,32.80
2022-08-09T14:52:08.173Z,32.90
2022-08-09T14:54:37.515Z,32.70
2022-08-09T14:57:07.996Z,32.60
2022-08-09T14:59:39.291Z,32.60
2022-08-09T15:02:07.560Z,31.80
2022-08-09T15:04:37.086Z,31.80
2022-08-09T15:07:05.082Z,31.60
2022-08-09T15:10:10.671Z,32.00
2022-08-09T15:12:27.571Z,32.10
2022-08-09T15:14:55.584Z,32.10
2022-08-09T15:17:23.491Z,32.10
2022-08-09T15:19:59.535Z,32.20
2022-08-09T15:22:30.675Z,32.20
2022-08-09T15:25:03.908Z,32.20
2022-08-09T15:27:47.576Z,32.30
2022-08-09T15:30:59.835Z,32.10
2022-08-09T15:33:07.682Z,32.20
2022-08-09T15:35:40.699Z,32.20
2022-08-09T15:38:12.324Z,32.30
2022-08-09T15:40:44.276Z,32.50
2022-08-09T15:43:13.566Z,32.60
2022-08-09T15:45:51.795Z,32.40
2022-08-09T15:48:33.007Z,32.30
2022-08-09T15:51:02.340Z,32.30
2022-08-09T15:54:05.237Z,32.30
2022-08-09T15:56:38.932Z,32.20
2022-08-09T15:59:06.814Z,32.30
2022-08-09T16:01:35.374Z,32.10
2022-08-09T16:04:03.887Z,32.10
2022-08-09T16:06:35.810Z,32.10
2022-08-09T16:09:06.333Z,32.00
2022-08-09T16:11:34.353Z,32.30
2022-08-09T16:14:07.756Z,32.10
2022-08-09T16:16:37.075Z,32.00
2022-08-09T16:19:06.011Z,32.10
2022-08-09T16:21:35.743Z,32.10
2022-08-09T16:24:04.564Z,32.20
2022-08-09T16:26:36.271Z,32.10
2022-08-09T16:29:11.776Z,32.00
2022-08-09T16:32:19.712Z,31.80
2022-08-09T16:34:54.630Z,31.70
2022-08-09T16:37:17.803Z,31.60
2022-08-09T16:39:48.186Z,31.60
2022-08-09T16:42:30.455Z,31.50
2022-08-09T16:44:59.812Z,31.40
2022-08-09T16:48:38.162Z,31.50
2022-08-09T16:50:31.253Z,31.60
2022-08-09T16:53:00.896Z,31.60
2022-08-09T16:55:31.473Z,31.60
2022-08-09T16:58:17.465Z,31.40
2022-08-09T17:00:47.141Z,31.40
2022-08-09T17:03:22.863Z,31.40
2022-08-09T17:06:07.733Z,31.50
2022-08-09T17:08:42.899Z,31.50
2022-08-09T17:11:41.205Z,31.20
2022-08-09T17:14:16.235Z,31.30
2022-08-09T17:17:00.030Z,31.20
2022-08-09T17:20:05.074Z,31.10
2022-08-09T17:22:33.992Z,31.30
2022-08-09T17:25:10.289Z,31.10
2022-08-09T17:27:49.544Z,31.10
2022-08-09T17:30:25.813Z,30.90
2022-08-09T17:32:57.651Z,30.70
2022-08-09T17:35:34.754Z,30.60
2022-08-09T17:38:13.847Z,30.60
2022-08-09T17:40:50.573Z,30.40
2022-08-09T17:43:33.515Z,30.40
2022-08-09T17:46:06.957Z,30.30
2022-08-09T17:48:39.857Z,30.20
2022-08-09T17:51:17.836Z,30.10
2022-08-09T17:53:51.877Z,30.00
2022-08-09T17:56:20.829Z,30.10
2022-08-09T17:58:48.842Z,30.00
2022-08-09T18:01:23.463Z,30.20
2022-08-09T18:03:54.658Z,30.10
2022-08-09T18:06:31.861Z,29.90
2022-08-09T18:09:03.161Z,30.00
2022-08-09T18:11:47.003Z,30.00
2022-08-09T18:14:22.690Z,29.90
2022-08-09T18:16:51.182Z,29.80
2022-08-09T18:20:56.680Z,29.80
2022-08-09T18:22:13.122Z,29.70
2022-08-09T18:24:45.592Z,29.60
2022-08-09T18:27:49.107Z,29.50
2022-08-09T18:30:39.960Z,29.50
2022-08-09T18:32:53.945Z,29.40
2022-08-09T18:35:58.369Z,29.40
2022-08-09T18:38:13.116Z,29.20
2022-08-09T18:40:42.990Z,29.10
2022-08-09T18:43:12.966Z,29.00
2022-08-09T18:46:48.998Z,28.90
2022-08-09T18:48:32.708Z,28.80
2022-08-09T18:51:02.620Z,28.60
2022-08-09T18:53:56.955Z,28.60
2022-08-09T18:56:20.006Z,28.50
2022-08-09T18:58:55.456Z,28.40
2022-08-09T19:01:23.857Z,28.30
2022-08-09T19:04:01.294Z,28.20
2022-08-09T19:06:38.538Z,28.20
2022-08-09T19:09:13.712Z,28.10
2022-08-09T19:11:57.434Z,28.00
2022-08-09T19:14:29.095Z,28.00
2022-08-09T19:16:57.497Z,28.00
2022-08-09T19:19:28.302Z,27.80
2022-08-09T19:22:12.044Z,27.80
2022-08-09T19:25:11.575Z,27.60
2022-08-09T19:27:34.683Z,27.60
2022-08-09T19:30:21.144Z,27.50
2022-08-09T19:32:53.168Z,27.50
2022-08-09T19:35:26.317Z,27.50
2022-08-09T19:37:57.707Z,27.40
2022-08-09T19:40:33.433Z,27.30
2022-08-09T19:43:05.335Z,27.20
2022-08-09T19:45:39.123Z,27.20
2022-08-09T19:48:10.778Z,27.20
2022-08-09T19:50:51.093Z,27.10
2022-08-09T19:53:23.455Z,27.10
2022-08-09T19:56:05.931Z,27.00
2022-08-09T19:58:35.798Z,27.10
2022-08-09T20:01:04.198Z,27.20
2022-08-09T20:04:17.917Z,27.20
2022-08-09T20:06:23.085Z,27.20
2022-08-09T20:08:56.889Z,27.20
2022-08-09T20:11:26.560Z,27.10
2022-08-09T20:13:55.063Z,27.00
2022-08-09T20:16:32.767Z,26.90
2022-08-09T20:19:49.544Z,26.90
2022-08-09T20:21:58.891Z,26.80
2022-08-09T20:24:33.649Z,26.70
2022-08-09T20:27:02.974Z,26.70
2022-08-09T20:29:37.484Z,26.70
2022-08-09T20:32:28.561Z,26.60
2022-08-09T20:34:54.786Z,26.50
2022-08-09T20:37:22.793Z,26.40
2022-08-09T20:40:17.709Z,26.40
2022-08-09T20:42:39.997Z,26.30
2022-08-09T20:46:01.508Z,26.10
2022-08-09T20:48:02.226Z,26.20
2022-08-09T20:50:47.730Z,26.00
2022-08-09T20:53:22.685Z,26.00
2022-08-09T20:56:08.634Z,26.00
2022-08-09T20:58:38.105Z,26.00
2022-08-09T21:01:32.594Z,26.00
2022-08-09T21:04:08.196Z,25.90
2022-08-09T21:06:44.032Z,25.90
2022-08-09T21:09:13.768Z,25.90
2022-08-09T21:14:31.572Z,25.70
2022-08-09T21:17:00.939Z,25.60
2022-08-09T21:20:19.565Z,25.50
2022-08-09T21:22:36.126Z,25.50
2022-08-09T21:25:22.187Z,25.30
2022-08-09T21:28:01.200Z,25.30
2022-08-09T21:30:29.324Z,25.20
2022-08-09T21:32:57.603Z,25.10
2022-08-09T21:35:26.437Z,24.90
2022-08-09T21:38:00.485Z,25.00
2022-08-09T21:40:32.619Z,24.90
2022-08-09T21:43:04.049Z,24.90
2022-08-09T21:45:39.077Z,24.80
2022-08-09T21:48:08.050Z,24.90
2022-08-09T21:50:38.719Z,24.90
2022-08-09T21:53:15.596Z,24.90
2022-08-09T21:55:52.160Z,24.70
2022-08-09T21:58:21.263Z,24.70
2022-08-09T22:00:59.266Z,24.80
2022-08-09T22:03:27.054Z,24.70
2022-08-09T22:05:57.990Z,24.60
2022-08-09T22:08:26.592Z,24.50
2022-08-09T22:11:00.904Z,24.40
2022-08-09T22:13:45.521Z,24.30
2022-08-09T22:16:13.289Z,24.20
2022-08-09T22:18:53.683Z,24.20
2022-08-09T22:21:24.861Z,24.10
2022-08-09T22:24:01.495Z,24.10
2022-08-09T22:26:35.562Z,24.00
2022-08-09T22:29:09.761Z,24.00
2022-08-09T22:31:50.264Z,24.00
2022-08-09T22:34:25.522Z,24.00
2022-08-09T22:36:53.911Z,24.00
2022-08-09T22:39:55.887Z,24.00
2022-08-09T22:42:16.216Z,24.00
2022-08-09T22:45:00.022Z,23.90
2022-08-09T22:48:11.733Z,23.80
2022-08-09T22:50:29.511Z,23.80
2022-08-09T22:52:58.221Z,23.80
2022-08-09T22:55:39.405Z,23.80
2022-08-09T22:58:20.205Z,23.80
2022-08-09T23:01:03.428Z,23.80
2022-08-09T23:04:03.420Z,23.70
2022-08-09T23:06:35.158Z,23.60
2022-08-09T23:09:03.876Z,23.70
2022-08-09T23:11:31.712Z,23.60
2022-08-09T23:13:59.778Z,23.50
2022-08-09T23:16:28.957Z,23.40
2022-08-09T23:18:56.709Z,23.30
2022-08-09T23:21:28.808Z,23.30
2022-08-09T23:24:06.039Z,23.20
2022-08-09T23:26:34.939Z,23.20
2022-08-09T23:29:02.774Z,23.10
2022-08-09T23:31:31.947Z,23.00
2022-08-09T23:33:59.793Z,23.00
2022-08-09T23:36:28.071Z,23.10
2022-08-09T23:38:55.814Z,23.10
2022-08-09T23:41:28.244Z,23.10
2022-08-09T23:43:57.084Z,23.20
2022-08-09T23:46:24.855Z,23.10
2022-08-09T23:48:54.055Z,23.20
2022-08-09T23:51:21.882Z,23.00
2022-08-09T23:53:52.347Z,23.10
2022-08-09T23:56:53.581Z,23.10
2022-08-09T23:59:08.588Z,23.10
